sensor_id;sensor_type;location;lat;lon;timestamp;P1;durP1;ratioP1;P2;durP2;ratioP2
317;SDS011;146;53.448;10.228;2023-02-12T00:01:18;13.13;;;7.40;;
317;SDS011;146;53.448;10.228;2023-02-12T00:03:46;9.90;;;7.30;;
317;SDS011;146;53.448;10.228;2023-02-12T00:06:14;12.50;;;7.73;;
317;SDS011;146;53.448;10.228;2023-02-12T00:08:44;8.40;;;6.67;;
317;SDS011;146;53.448;10.228;2023-02-12T00:11:15;16.27;;;7.10;;
317;SDS011;146;53.448;10.228;2023-02-12T00:13:44;10.27;;;6.10;;
317;SDS011;146;53.448;10.228;2023-02-12T00:16:16;10.50;;;6.40;;
317;SDS011;146;53.448;10.228;2023-02-12T00:21:58;7.00;;;4.13;;
317;SDS011;146;53.448;10.228;2023-02-12T00:24:27;5.70;;;4.20;;
317;SDS011;146;53.448;10.228;2023-02-12T00:26:55;5.57;;;4.10;;
317;SDS011;146;53.448;10.228;2023-02-12T00:29:32;4.57;;;3.73;;
317;SDS011;146;53.448;10.228;2023-02-12T00:32:01;4.10;;;3.43;;
317;SDS011;146;53.448;10.228;2023-02-12T00:34:32;4.80;;;4.27;;
317;SDS011;146;53.448;10.228;2023-02-12T00:37:08;4.23;;;3.83;;
317;SDS011;146;53.448;10.228;2023-02-12T00:39:39;6.70;;;4.23;;
317;SDS011;146;53.448;10.228;2023-02-12T00:42:08;7.23;;;4.47;;
317;SDS011;146;53.448;10.228;2023-02-12T00:44:36;8.70;;;5.50;;
317;SDS011;146;53.448;10.228;2023-02-12T00:47:15;6.10;;;4.30;;
317;SDS011;146;53.448;10.228;2023-02-12T00:49:46;8.23;;;4.50;;
317;SDS011;146;53.448;10.228;2023-02-12T00:52:17;6.80;;;4.77;;
317;SDS011;146;53.448;10.228;2023-02-12T00:54:51;7.03;;;4.40;;
317;SDS011;146;53.448;10.228;2023-02-12T00:57:19;6.33;;;4.80;;
317;SDS011;146;53.448;10.228;2023-02-12T00:59:46;8.17;;;5.80;;
317;SDS011;146;53.448;10.228;2023-02-12T01:02:15;7.27;;;4.93;;
317;SDS011;146;53.448;10.228;2023-02-12T01:04:43;9.00;;;5.70;;
317;SDS011;146;53.448;10.228;2023-02-12T01:07:11;7.23;;;5.10;;
317;SDS011;146;53.448;10.228;2023-02-12T01:09:42;7.40;;;5.60;;
317;SDS011;146;53.448;10.228;2023-02-12T01:12:13;5.83;;;4.17;;
317;SDS011;146;53.448;10.228;2023-02-12T01:14:45;6.83;;;5.03;;
317;SDS011;146;53.448;10.228;2023-02-12T01:17:15;5.17;;;4.07;;
317;SDS011;146;53.448;10.228;2023-02-12T01:19:43;8.20;;;5.70;;
317;SDS011;146;53.448;10.228;2023-02-12T01:22:13;6.80;;;5.60;;
317;SDS011;146;53.448;10.228;2023-02-12T01:24:45;9.50;;;5.90;;
317;SDS011;146;53.448;10.228;2023-02-12T01:27:20;7.07;;;3.20;;
317;SDS011;146;53.448;10.228;2023-02-12T01:29:56;5.20;;;3.30;;
317;SDS011;146;53.448;10.228;2023-02-12T01:32:24;4.37;;;3.33;;
317;SDS011;146;53.448;10.228;2023-02-12T01:34:52;3.07;;;2.70;;
317;SDS011;146;53.448;10.228;2023-02-12T01:37:20;3.70;;;2.93;;
317;SDS011;146;53.448;10.228;2023-02-12T01:39:49;4.37;;;3.40;;
317;SDS011;146;53.448;10.228;2023-02-12T01:42:21;5.47;;;3.27;;
317;SDS011;146;53.448;10.228;2023-02-12T01:45:22;5.13;;;3.10;;
317;SDS011;146;53.448;10.228;2023-02-12T01:48:22;5.93;;;4.27;;
317;SDS011;146;53.448;10.228;2023-02-12T01:50:54;7.20;;;3.80;;
317;SDS011;146;53.448;10.228;2023-02-12T01:53:27;5.63;;;3.77;;
317;SDS011;146;53.448;10.228;2023-02-12T01:56:01;8.97;;;4.87;;
317;SDS011;146;53.448;10.228;2023-02-12T01:58:33;7.57;;;4.40;;
317;SDS011;146;53.448;10.228;2023-02-12T02:01:05;5.00;;;3.30;;
317;SDS011;146;53.448;10.228;2023-02-12T02:03:35;5.03;;;3.33;;
317;SDS011;146;53.448;10.228;2023-02-12T02:06:15;5.27;;;3.83;;
317;SDS011;146;53.448;10.228;2023-02-12T02:09:01;5.93;;;4.23;;
317;SDS011;146;53.448;10.228;2023-02-12T02:11:45;3.93;;;3.53;;
317;SDS011;146;53.448;10.228;2023-02-12T02:14:31;7.97;;;4.57;;
317;SDS011;146;53.448;10.228;2023-02-12T02:20:05;6.10;;;4.17;;
317;SDS011;146;53.448;10.228;2023-02-12T02:22:47;6.27;;;4.80;;
317;SDS011;146;53.448;10.228;2023-02-12T02:28:32;5.50;;;4.00;;
317;SDS011;146;53.448;10.228;2023-02-12T02:31:28;5.87;;;4.50;;
317;SDS011;146;53.448;10.228;2023-02-12T02:34:14;7.53;;;5.07;;
317;SDS011;146;53.448;10.228;2023-02-12T02:36:58;7.83;;;5.03;;
317;SDS011;146;53.448;10.228;2023-02-12T02:39:34;9.33;;;5.17;;
317;SDS011;146;53.448;10.228;2023-02-12T02:42:08;9.47;;;5.80;;
317;SDS011;146;53.448;10.228;2023-02-12T02:44:41;10.87;;;5.73;;
317;SDS011;146;53.448;10.228;2023-02-12T02:47:24;10.83;;;6.63;;
317;SDS011;146;53.448;10.228;2023-02-12T02:49:58;11.23;;;6.10;;
317;SDS011;146;53.448;10.228;2023-02-12T02:52:35;8.70;;;5.03;;
317;SDS011;146;53.448;10.228;2023-02-12T02:55:10;12.27;;;6.90;;
317;SDS011;146;53.448;10.228;2023-02-12T02:57:41;10.70;;;5.23;;
317;SDS011;146;53.448;10.228;2023-02-12T03:00:23;9.70;;;5.80;;
317;SDS011;146;53.448;10.228;2023-02-12T03:03:01;12.43;;;7.00;;
317;SDS011;146;53.448;10.228;2023-02-12T03:05:38;8.80;;;5.57;;
317;SDS011;146;53.448;10.228;2023-02-12T03:08:10;9.80;;;6.47;;
317;SDS011;146;53.448;10.228;2023-02-12T03:10:41;10.90;;;5.53;;
317;SDS011;146;53.448;10.228;2023-02-12T03:13:19;13.50;;;5.63;;
317;SDS011;146;53.448;10.228;2023-02-12T03:15:52;9.90;;;6.00;;
317;SDS011;146;53.448;10.228;2023-02-12T03:18:32;8.63;;;6.07;;
317;SDS011;146;53.448;10.228;2023-02-12T03:21:03;11.93;;;6.57;;
317;SDS011;146;53.448;10.228;2023-02-12T03:23:36;14.90;;;8.70;;
317;SDS011;146;53.448;10.228;2023-02-12T03:26:13;8.50;;;5.53;;
317;SDS011;146;53.448;10.228;2023-02-12T03:28:49;8.97;;;6.07;;
317;SDS011;146;53.448;10.228;2023-02-12T03:31:19;9.23;;;5.87;;
317;SDS011;146;53.448;10.228;2023-02-12T03:33:59;8.57;;;4.60;;
317;SDS011;146;53.448;10.228;2023-02-12T03:36:35;7.37;;;5.47;;
317;SDS011;146;53.448;10.228;2023-02-12T03:39:12;7.70;;;5.30;;
317;SDS011;146;53.448;10.228;2023-02-12T03:41:52;10.83;;;5.80;;
317;SDS011;146;53.448;10.228;2023-02-12T03:44:29;12.30;;;6.70;;
317;SDS011;146;53.448;10.228;2023-02-12T03:47:10;9.97;;;5.30;;
317;SDS011;146;53.448;10.228;2023-02-12T03:49:54;7.97;;;5.50;;
317;SDS011;146;53.448;10.228;2023-02-12T03:52:30;9.00;;;5.20;;
317;SDS011;146;53.448;10.228;2023-02-12T03:54:58;9.03;;;5.70;;
317;SDS011;146;53.448;10.228;2023-02-12T03:57:29;8.10;;;5.33;;
317;SDS011;146;53.448;10.228;2023-02-12T04:00:12;11.90;;;6.27;;
317;SDS011;146;53.448;10.228;2023-02-12T04:02:42;8.77;;;6.10;;
317;SDS011;146;53.448;10.228;2023-02-12T04:05:19;9.43;;;6.33;;
317;SDS011;146;53.448;10.228;2023-02-12T04:07:48;10.50;;;7.07;;
317;SDS011;146;53.448;10.228;2023-02-12T04:10:17;9.30;;;5.83;;
317;SDS011;146;53.448;10.228;2023-02-12T04:13:01;12.20;;;7.20;;
317;SDS011;146;53.448;10.228;2023-02-12T04:15:42;12.23;;;6.90;;
317;SDS011;146;53.448;10.228;2023-02-12T04:18:27;9.33;;;6.37;;
317;SDS011;146;53.448;10.228;2023-02-12T04:21:08;8.23;;;6.00;;
317;SDS011;146;53.448;10.228;2023-02-12T04:23:53;11.60;;;5.47;;
317;SDS011;146;53.448;10.228;2023-02-12T04:26:45;10.20;;;5.50;;
317;SDS011;146;53.448;10.228;2023-02-12T04:29:23;8.40;;;5.90;;
317;SDS011;146;53.448;10.228;2023-02-12T04:32:00;8.13;;;5.73;;
317;SDS011;146;53.448;10.228;2023-02-12T04:34:40;8.37;;;5.37;;
317;SDS011;146;53.448;10.228;2023-02-12T04:37:17;8.63;;;6.20;;
317;SDS011;146;53.448;10.228;2023-02-12T04:39:48;10.40;;;6.30;;
317;SDS011;146;53.448;10.228;2023-02-12T04:42:17;7.73;;;6.90;;
317;SDS011;146;53.448;10.228;2023-02-12T04:44:44;7.20;;;5.00;;
317;SDS011;146;53.448;10.228;2023-02-12T04:47:14;10.63;;;6.63;;
317;SDS011;146;53.448;10.228;2023-02-12T04:49:51;7.40;;;5.67;;
317;SDS011;146;53.448;10.228;2023-02-12T04:52:21;11.30;;;6.30;;
317;SDS011;146;53.448;10.228;2023-02-12T04:54:49;13.63;;;6.70;;
317;SDS011;146;53.448;10.228;2023-02-12T04:57:30;9.97;;;7.20;;
317;SDS011;146;53.448;10.228;2023-02-12T05:00:02;13.80;;;7.30;;
317;SDS011;146;53.448;10.228;2023-02-12T05:02:32;11.70;;;7.10;;
317;SDS011;146;53.448;10.228;2023-02-12T05:05:00;17.30;;;8.73;;
317;SDS011;146;53.448;10.228;2023-02-12T05:07:35;12.70;;;6.80;;
317;SDS011;146;53.448;10.228;2023-02-12T05:10:08;14.20;;;7.53;;
317;SDS011;146;53.448;10.228;2023-02-12T05:12:39;13.20;;;7.90;;
317;SDS011;146;53.448;10.228;2023-02-12T05:15:07;12.60;;;8.47;;
317;SDS011;146;53.448;10.228;2023-02-12T05:17:37;16.53;;;8.20;;
317;SDS011;146;53.448;10.228;2023-02-12T05:20:05;19.03;;;8.53;;
317;SDS011;146;53.448;10.228;2023-02-12T05:22:33;18.90;;;8.20;;
317;SDS011;146;53.448;10.228;2023-02-12T05:25:06;20.97;;;9.50;;
317;SDS011;146;53.448;10.228;2023-02-12T05:27:33;24.00;;;9.83;;
317;SDS011;146;53.448;10.228;2023-02-12T05:30:04;24.47;;;10.80;;
317;SDS011;146;53.448;10.228;2023-02-12T05:32:35;21.10;;;9.90;;
317;SDS011;146;53.448;10.228;2023-02-12T05:35:05;23.20;;;10.30;;
317;SDS011;146;53.448;10.228;2023-02-12T05:37:34;19.27;;;9.90;;
317;SDS011;146;53.448;10.228;2023-02-12T05:40:03;22.83;;;9.60;;
317;SDS011;146;53.448;10.228;2023-02-12T05:42:31;20.30;;;9.47;;
317;SDS011;146;53.448;10.228;2023-02-12T05:45:00;22.13;;;10.17;;
317;SDS011;146;53.448;10.228;2023-02-12T05:47:29;21.17;;;9.40;;
317;SDS011;146;53.448;10.228;2023-02-12T05:49:59;17.40;;;9.10;;
317;SDS011;146;53.448;10.228;2023-02-12T05:52:37;19.50;;;9.10;;
317;SDS011;146;53.448;10.228;2023-02-12T05:55:06;16.83;;;9.37;;
317;SDS011;146;53.448;10.228;2023-02-12T05:57:41;17.40;;;7.83;;
317;SDS011;146;53.448;10.228;2023-02-12T06:00:11;16.60;;;7.43;;
317;SDS011;146;53.448;10.228;2023-02-12T06:02:42;20.07;;;8.40;;
317;SDS011;146;53.448;10.228;2023-02-12T06:05:12;18.73;;;8.60;;
317;SDS011;146;53.448;10.228;2023-02-12T06:07:41;12.47;;;6.57;;
317;SDS011;146;53.448;10.228;2023-02-12T06:10:12;17.67;;;7.33;;
317;SDS011;146;53.448;10.228;2023-02-12T06:12:40;13.77;;;8.10;;
317;SDS011;146;53.448;10.228;2023-02-12T06:15:13;13.27;;;6.83;;
317;SDS011;146;53.448;10.228;2023-02-12T06:17:43;15.80;;;6.50;;
317;SDS011;146;53.448;10.228;2023-02-12T06:20:10;12.60;;;5.87;;
317;SDS011;146;53.448;10.228;2023-02-12T06:22:46;10.70;;;5.13;;
317;SDS011;146;53.448;10.228;2023-02-12T06:25:21;12.43;;;5.57;;
317;SDS011;146;53.448;10.228;2023-02-12T06:27:49;11.70;;;6.50;;
317;SDS011;146;53.448;10.228;2023-02-12T06:30:19;11.80;;;5.80;;
317;SDS011;146;53.448;10.228;2023-02-12T06:32:50;12.33;;;6.20;;
317;SDS011;146;53.448;10.228;2023-02-12T06:35:19;9.43;;;6.20;;
317;SDS011;146;53.448;10.228;2023-02-12T07:11:46;13.70;;;4.33;;
317;SDS011;146;53.448;10.228;2023-02-12T07:14:16;16.67;;;4.97;;
317;SDS011;146;53.448;10.228;2023-02-12T07:16:43;8.80;;;3.97;;
317;SDS011;146;53.448;10.228;2023-02-12T07:19:10;9.87;;;4.70;;
317;SDS011;146;53.448;10.228;2023-02-12T07:21:41;13.57;;;4.60;;
317;SDS011;146;53.448;10.228;2023-02-12T07:24:12;13.57;;;4.87;;
317;SDS011;146;53.448;10.228;2023-02-12T07:26:42;12.23;;;4.67;;
317;SDS011;146;53.448;10.228;2023-02-12T07:29:11;13.53;;;6.67;;
317;SDS011;146;53.448;10.228;2023-02-12T07:31:38;11.33;;;6.47;;
317;SDS011;146;53.448;10.228;2023-02-12T07:34:11;12.50;;;8.60;;
317;SDS011;146;53.448;10.228;2023-02-12T07:36:38;15.80;;;8.70;;
317;SDS011;146;53.448;10.228;2023-02-12T07:39:06;14.57;;;6.87;;
317;SDS011;146;53.448;10.228;2023-02-12T07:41:36;14.27;;;6.20;;
317;SDS011;146;53.448;10.228;2023-02-12T07:44:05;12.27;;;9.23;;
317;SDS011;146;53.448;10.228;2023-02-12T07:46:36;18.53;;;8.13;;
317;SDS011;146;53.448;10.228;2023-02-12T07:49:07;13.03;;;6.10;;
317;SDS011;146;53.448;10.228;2023-02-12T07:51:45;15.37;;;5.90;;
317;SDS011;146;53.448;10.228;2023-02-12T07:54:13;16.83;;;7.63;;
317;SDS011;146;53.448;10.228;2023-02-12T07:56:44;15.57;;;6.20;;
317;SDS011;146;53.448;10.228;2023-02-12T07:59:15;18.20;;;7.10;;
317;SDS011;146;53.448;10.228;2023-02-12T08:01:56;12.60;;;7.90;;
317;SDS011;146;53.448;10.228;2023-02-12T08:04:26;16.57;;;8.90;;
317;SDS011;146;53.448;10.228;2023-02-12T08:06:58;16.40;;;10.10;;
317;SDS011;146;53.448;10.228;2023-02-12T08:09:27;17.93;;;7.63;;
317;SDS011;146;53.448;10.228;2023-02-12T08:11:58;12.03;;;7.10;;
317;SDS011;146;53.448;10.228;2023-02-12T08:14:28;17.83;;;9.13;;
317;SDS011;146;53.448;10.228;2023-02-12T08:16:56;14.90;;;8.57;;
317;SDS011;146;53.448;10.228;2023-02-12T08:19:29;17.60;;;8.70;;
317;SDS011;146;53.448;10.228;2023-02-12T08:22:03;15.20;;;7.87;;
317;SDS011;146;53.448;10.228;2023-02-12T08:24:36;19.00;;;8.83;;
317;SDS011;146;53.448;10.228;2023-02-12T08:27:07;15.40;;;7.50;;
317;SDS011;146;53.448;10.228;2023-02-12T08:29:34;14.43;;;8.20;;
317;SDS011;146;53.448;10.228;2023-02-12T08:32:03;18.40;;;9.90;;
317;SDS011;146;53.448;10.228;2023-02-12T08:34:34;16.63;;;9.90;;
317;SDS011;146;53.448;10.228;2023-02-12T08:37:10;21.17;;;11.20;;
317;SDS011;146;53.448;10.228;2023-02-12T08:39:37;22.37;;;10.27;;
317;SDS011;146;53.448;10.228;2023-02-12T08:42:04;19.57;;;11.10;;
317;SDS011;146;53.448;10.228;2023-02-12T08:44:31;17.20;;;9.93;;
317;SDS011;146;53.448;10.228;2023-02-12T08:46:58;18.53;;;11.53;;
317;SDS011;146;53.448;10.228;2023-02-12T08:49:27;19.73;;;12.20;;
317;SDS011;146;53.448;10.228;2023-02-12T08:52:01;20.33;;;11.10;;
317;SDS011;146;53.448;10.228;2023-02-12T08:54:29;21.00;;;10.57;;
317;SDS011;146;53.448;10.228;2023-02-12T08:56:57;20.37;;;10.40;;
317;SDS011;146;53.448;10.228;2023-02-12T08:59:39;21.40;;;11.13;;
317;SDS011;146;53.448;10.228;2023-02-12T09:02:15;20.70;;;10.97;;
317;SDS011;146;53.448;10.228;2023-02-12T09:04:46;13.70;;;9.50;;
317;SDS011;146;53.448;10.228;2023-02-12T09:07:12;18.40;;;10.43;;
317;SDS011;146;53.448;10.228;2023-02-12T09:09:45;18.50;;;12.00;;
317;SDS011;146;53.448;10.228;2023-02-12T09:12:18;22.20;;;10.70;;
317;SDS011;146;53.448;10.228;2023-02-12T09:14:45;18.13;;;9.60;;
317;SDS011;146;53.448;10.228;2023-02-12T09:17:12;16.30;;;11.23;;
317;SDS011;146;53.448;10.228;2023-02-12T09:19:46;18.50;;;10.20;;
317;SDS011;146;53.448;10.228;2023-02-12T09:22:15;17.00;;;10.60;;
317;SDS011;146;53.448;10.228;2023-02-12T09:24:42;16.20;;;9.40;;
317;SDS011;146;53.448;10.228;2023-02-12T09:27:11;17.90;;;10.90;;
317;SDS011;146;53.448;10.228;2023-02-12T09:29:41;13.90;;;8.87;;
317;SDS011;146;53.448;10.228;2023-02-12T09:32:08;14.37;;;10.20;;
317;SDS011;146;53.448;10.228;2023-02-12T09:34:40;16.80;;;11.03;;
317;SDS011;146;53.448;10.228;2023-02-12T09:37:15;17.37;;;9.13;;
317;SDS011;146;53.448;10.228;2023-02-12T09:39:42;16.90;;;9.83;;
317;SDS011;146;53.448;10.228;2023-02-12T09:42:18;17.47;;;9.83;;
317;SDS011;146;53.448;10.228;2023-02-12T09:45:15;13.47;;;8.83;;
317;SDS011;146;53.448;10.228;2023-02-12T09:47:45;14.93;;;9.07;;
317;SDS011;146;53.448;10.228;2023-02-12T09:50:39;16.50;;;10.07;;
317;SDS011;146;53.448;10.228;2023-02-12T09:53:14;15.63;;;10.60;;
317;SDS011;146;53.448;10.228;2023-02-12T09:55:43;16.50;;;11.37;;
317;SDS011;146;53.448;10.228;2023-02-12T09:58:14;13.37;;;9.47;;
317;SDS011;146;53.448;10.228;2023-02-12T10:00:47;16.63;;;9.67;;
317;SDS011;146;53.448;10.228;2023-02-12T10:03:16;16.93;;;11.20;;
317;SDS011;146;53.448;10.228;2023-02-12T10:05:46;15.10;;;10.07;;
317;SDS011;146;53.448;10.228;2023-02-12T10:08:31;12.83;;;9.30;;
317;SDS011;146;53.448;10.228;2023-02-12T10:11:15;15.43;;;10.47;;
317;SDS011;146;53.448;10.228;2023-02-12T10:13:51;13.70;;;9.77;;
317;SDS011;146;53.448;10.228;2023-02-12T10:16:42;14.27;;;9.23;;
317;SDS011;146;53.448;10.228;2023-02-12T10:19:29;15.73;;;9.37;;
317;SDS011;146;53.448;10.228;2023-02-12T10:22:26;17.67;;;9.80;;
317;SDS011;146;53.448;10.228;2023-02-12T10:25:04;10.47;;;8.20;;
317;SDS011;146;53.448;10.228;2023-02-12T10:27:42;10.83;;;7.77;;
317;SDS011;146;53.448;10.228;2023-02-12T10:30:16;11.90;;;8.60;;
317;SDS011;146;53.448;10.228;2023-02-12T10:32:47;12.70;;;9.00;;
317;SDS011;146;53.448;10.228;2023-02-12T10:35:20;11.40;;;8.70;;
317;SDS011;146;53.448;10.228;2023-02-12T10:37:51;11.30;;;8.60;;
317;SDS011;146;53.448;10.228;2023-02-12T10:40:22;12.10;;;8.17;;
317;SDS011;146;53.448;10.228;2023-02-12T10:42:54;10.40;;;7.80;;
317;SDS011;146;53.448;10.228;2023-02-12T10:45:29;9.90;;;7.37;;
317;SDS011;146;53.448;10.228;2023-02-12T10:48:07;7.53;;;6.43;;
317;SDS011;146;53.448;10.228;2023-02-12T10:53:40;11.47;;;8.10;;
317;SDS011;146;53.448;10.228;2023-02-12T10:56:13;9.70;;;7.50;;
317;SDS011;146;53.448;10.228;2023-02-12T10:58:49;7.93;;;6.63;;
317;SDS011;146;53.448;10.228;2023-02-12T11:01:19;9.17;;;7.03;;
317;SDS011;146;53.448;10.228;2023-02-12T11:03:49;10.60;;;7.90;;
317;SDS011;146;53.448;10.228;2023-02-12T11:06:20;7.67;;;6.87;;
317;SDS011;146;53.448;10.228;2023-02-12T11:08:56;8.73;;;6.47;;
317;SDS011;146;53.448;10.228;2023-02-12T11:11:27;8.53;;;6.27;;
317;SDS011;146;53.448;10.228;2023-02-12T11:14:02;8.33;;;6.40;;
317;SDS011;146;53.448;10.228;2023-02-12T11:16:34;6.33;;;5.60;;
317;SDS011;146;53.448;10.228;2023-02-12T11:19:18;10.70;;;7.40;;
317;SDS011;146;53.448;10.228;2023-02-12T11:21:49;9.13;;;6.20;;
317;SDS011;146;53.448;10.228;2023-02-12T11:24:32;7.87;;;6.33;;
317;SDS011;146;53.448;10.228;2023-02-12T11:27:10;8.30;;;6.80;;
317;SDS011;146;53.448;10.228;2023-02-12T11:29:45;7.90;;;5.60;;
317;SDS011;146;53.448;10.228;2023-02-12T11:32:14;9.50;;;8.57;;
317;SDS011;146;53.448;10.228;2023-02-12T11:34:42;7.63;;;6.17;;
317;SDS011;146;53.448;10.228;2023-02-12T11:37:31;9.93;;;6.43;;
317;SDS011;146;53.448;10.228;2023-02-12T11:40:02;7.63;;;5.37;;
317;SDS011;146;53.448;10.228;2023-02-12T11:42:32;8.97;;;5.50;;
317;SDS011;146;53.448;10.228;2023-02-12T11:45:02;6.60;;;5.37;;
317;SDS011;146;53.448;10.228;2023-02-12T11:47:30;7.70;;;5.90;;
317;SDS011;146;53.448;10.228;2023-02-12T11:50:01;5.53;;;4.97;;
317;SDS011;146;53.448;10.228;2023-02-12T11:52:31;9.07;;;5.80;;
317;SDS011;146;53.448;10.228;2023-02-12T11:55:03;8.20;;;5.60;;
317;SDS011;146;53.448;10.228;2023-02-12T11:57:36;7.73;;;6.70;;
317;SDS011;146;53.448;10.228;2023-02-12T12:00:11;6.40;;;5.70;;
317;SDS011;146;53.448;10.228;2023-02-12T12:02:43;6.57;;;5.53;;
317;SDS011;146;53.448;10.228;2023-02-12T12:05:17;9.93;;;5.63;;
317;SDS011;146;53.448;10.228;2023-02-12T12:07:47;8.50;;;5.77;;
317;SDS011;146;53.448;10.228;2023-02-12T12:10:24;8.37;;;6.07;;
317;SDS011;146;53.448;10.228;2023-02-12T12:13:02;7.87;;;6.10;;
317;SDS011;146;53.448;10.228;2023-02-12T12:15:58;10.07;;;7.03;;
317;SDS011;146;53.448;10.228;2023-02-12T12:18:51;12.30;;;8.83;;
317;SDS011;146;53.448;10.228;2023-02-12T12:21:44;12.50;;;8.37;;
317;SDS011;146;53.448;10.228;2023-02-12T12:24:19;11.60;;;8.77;;
317;SDS011;146;53.448;10.228;2023-02-12T12:26:56;11.67;;;8.10;;
317;SDS011;146;53.448;10.228;2023-02-12T12:29:51;9.37;;;7.83;;
317;SDS011;146;53.448;10.228;2023-02-12T12:32:25;9.20;;;7.60;;
317;SDS011;146;53.448;10.228;2023-02-12T12:34:54;9.87;;;7.27;;
317;SDS011;146;53.448;10.228;2023-02-12T12:37:26;10.60;;;7.70;;
317;SDS011;146;53.448;10.228;2023-02-12T12:43:02;9.60;;;7.93;;
317;SDS011;146;53.448;10.228;2023-02-12T12:48:32;9.93;;;7.10;;
317;SDS011;146;53.448;10.228;2023-02-12T12:51:16;9.83;;;7.13;;
317;SDS011;146;53.448;10.228;2023-02-12T12:54:06;8.03;;;6.73;;
317;SDS011;146;53.448;10.228;2023-02-12T12:56:57;8.90;;;5.80;;
317;SDS011;146;53.448;10.228;2023-02-12T13:08:47;7.77;;;5.67;;
317;SDS011;146;53.448;10.228;2023-02-12T13:11:31;8.07;;;5.10;;
317;SDS011;146;53.448;10.228;2023-02-12T13:14:07;10.57;;;7.37;;
317;SDS011;146;53.448;10.228;2023-02-12T13:16:59;7.60;;;5.63;;
317;SDS011;146;53.448;10.228;2023-02-12T13:19:43;7.40;;;5.23;;
317;SDS011;146;53.448;10.228;2023-02-12T13:22:20;5.53;;;4.93;;
317;SDS011;146;53.448;10.228;2023-02-12T13:25:00;6.03;;;4.60;;
317;SDS011;146;53.448;10.228;2023-02-12T13:27:42;6.57;;;5.90;;
317;SDS011;146;53.448;10.228;2023-02-12T13:30:17;11.40;;;9.23;;
317;SDS011;146;53.448;10.228;2023-02-12T13:32:53;10.40;;;6.90;;
317;SDS011;146;53.448;10.228;2023-02-12T13:35:26;7.83;;;6.50;;
317;SDS011;146;53.448;10.228;2023-02-12T13:37:56;5.40;;;4.27;;
317;SDS011;146;53.448;10.228;2023-02-12T13:40:35;6.20;;;5.47;;
317;SDS011;146;53.448;10.228;2023-02-12T13:43:06;6.80;;;5.20;;
317;SDS011;146;53.448;10.228;2023-02-12T13:45:47;6.63;;;5.67;;
317;SDS011;146;53.448;10.228;2023-02-12T13:51:18;5.50;;;4.97;;
317;SDS011;146;53.448;10.228;2023-02-12T13:53:54;5.63;;;4.50;;
317;SDS011;146;53.448;10.228;2023-02-12T13:56:37;4.13;;;3.70;;
317;SDS011;146;53.448;10.228;2023-02-12T14:04:55;5.50;;;3.17;;
317;SDS011;146;53.448;10.228;2023-02-12T14:07:38;3.50;;;3.20;;
317;SDS011;146;53.448;10.228;2023-02-12T14:10:18;3.83;;;3.43;;
317;SDS011;146;53.448;10.228;2023-02-12T14:12:47;4.27;;;3.87;;
317;SDS011;146;53.448;10.228;2023-02-12T14:15:20;4.50;;;3.80;;
317;SDS011;146;53.448;10.228;2023-02-12T14:18:04;5.20;;;4.03;;
317;SDS011;146;53.448;10.228;2023-02-12T14:20:37;3.60;;;3.00;;
317;SDS011;146;53.448;10.228;2023-02-12T14:25:57;3.40;;;3.10;;
317;SDS011;146;53.448;10.228;2023-02-12T14:28:42;4.10;;;3.00;;
317;SDS011;146;53.448;10.228;2023-02-12T14:31:29;3.03;;;2.70;;
317;SDS011;146;53.448;10.228;2023-02-12T14:37:15;2.17;;;1.97;;
317;SDS011;146;53.448;10.228;2023-02-12T14:39:49;2.07;;;1.70;;
317;SDS011;146;53.448;10.228;2023-02-12T14:42:55;2.23;;;1.90;;
317;SDS011;146;53.448;10.228;2023-02-12T14:45:32;2.93;;;2.33;;
317;SDS011;146;53.448;10.228;2023-02-12T14:48:00;2.83;;;2.60;;
317;SDS011;146;53.448;10.228;2023-02-12T14:50:44;1.87;;;1.60;;
317;SDS011;146;53.448;10.228;2023-02-12T14:53:22;2.73;;;2.40;;
317;SDS011;146;53.448;10.228;2023-02-12T14:55:53;2.80;;;2.47;;
317;SDS011;146;53.448;10.228;2023-02-12T14:58:30;1.80;;;1.60;;
317;SDS011;146;53.448;10.228;2023-02-12T15:01:14;2.47;;;2.27;;
317;SDS011;146;53.448;10.228;2023-02-12T15:03:48;3.00;;;2.30;;
317;SDS011;146;53.448;10.228;2023-02-12T15:06:20;4.10;;;3.80;;
317;SDS011;146;53.448;10.228;2023-02-12T15:08:51;3.63;;;3.33;;
317;SDS011;146;53.448;10.228;2023-02-12T15:11:33;2.40;;;2.20;;
317;SDS011;146;53.448;10.228;2023-02-12T15:14:04;5.90;;;2.17;;
317;SDS011;146;53.448;10.228;2023-02-12T15:16:34;1.90;;;1.80;;
317;SDS011;146;53.448;10.228;2023-02-12T15:19:16;4.17;;;1.87;;
317;SDS011;146;53.448;10.228;2023-02-12T15:21:57;2.33;;;2.10;;
317;SDS011;146;53.448;10.228;2023-02-12T15:24:48;2.20;;;2.10;;
317;SDS011;146;53.448;10.228;2023-02-12T15:27:15;2.40;;;2.20;;
317;SDS011;146;53.448;10.228;2023-02-12T15:29:44;2.63;;;2.43;;
317;SDS011;146;53.448;10.228;2023-02-12T15:32:14;2.87;;;2.67;;
317;SDS011;146;53.448;10.228;2023-02-12T15:34:48;2.80;;;2.57;;
317;SDS011;146;53.448;10.228;2023-02-12T15:37:20;3.60;;;3.30;;
317;SDS011;146;53.448;10.228;2023-02-12T15:39:54;3.73;;;3.33;;
317;SDS011;146;53.448;10.228;2023-02-12T15:42:35;3.47;;;3.13;;
317;SDS011;146;53.448;10.228;2023-02-12T15:45:26;2.87;;;2.50;;
317;SDS011;146;53.448;10.228;2023-02-12T15:48:06;5.30;;;3.23;;
317;SDS011;146;53.448;10.228;2023-02-12T15:50:48;4.03;;;3.70;;
317;SDS011;146;53.448;10.228;2023-02-12T15:53:21;5.00;;;3.80;;
317;SDS011;146;53.448;10.228;2023-02-12T15:55:50;3.80;;;3.33;;
317;SDS011;146;53.448;10.228;2023-02-12T15:58:19;4.37;;;3.40;;
317;SDS011;146;53.448;10.228;2023-02-12T16:00:48;4.07;;;3.77;;
317;SDS011;146;53.448;10.228;2023-02-12T16:03:19;3.93;;;3.63;;
317;SDS011;146;53.448;10.228;2023-02-12T16:05:49;4.90;;;3.83;;
317;SDS011;146;53.448;10.228;2023-02-12T16:08:17;3.70;;;3.40;;
317;SDS011;146;53.448;10.228;2023-02-12T16:10:46;3.57;;;3.13;;
317;SDS011;146;53.448;10.228;2023-02-12T16:13:23;4.30;;;3.33;;
317;SDS011;146;53.448;10.228;2023-02-12T16:16:14;3.53;;;3.00;;
317;SDS011;146;53.448;10.228;2023-02-12T16:19:01;4.60;;;3.70;;
317;SDS011;146;53.448;10.228;2023-02-12T16:21:33;5.50;;;3.43;;
317;SDS011;146;53.448;10.228;2023-02-12T16:24:02;5.90;;;4.20;;
317;SDS011;146;53.448;10.228;2023-02-12T16:26:30;5.73;;;4.10;;
317;SDS011;146;53.448;10.228;2023-02-12T16:29:13;4.03;;;3.00;;
317;SDS011;146;53.448;10.228;2023-02-12T16:31:51;4.33;;;3.90;;
317;SDS011;146;53.448;10.228;2023-02-12T16:34:27;4.13;;;3.63;;
317;SDS011;146;53.448;10.228;2023-02-12T16:37:24;4.00;;;3.70;;
317;SDS011;146;53.448;10.228;2023-02-12T16:40:22;4.67;;;4.20;;
317;SDS011;146;53.448;10.228;2023-02-12T16:48:40;4.70;;;3.93;;
317;SDS011;146;53.448;10.228;2023-02-12T16:51:18;4.57;;;4.17;;
317;SDS011;146;53.448;10.228;2023-02-12T16:53:50;5.27;;;4.70;;
317;SDS011;146;53.448;10.228;2023-02-12T16:56:20;5.30;;;4.47;;
317;SDS011;146;53.448;10.228;2023-02-12T16:58:48;5.07;;;4.40;;
317;SDS011;146;53.448;10.228;2023-02-12T17:01:22;5.97;;;4.07;;
317;SDS011;146;53.448;10.228;2023-02-12T17:03:53;4.63;;;4.23;;
317;SDS011;146;53.448;10.228;2023-02-12T17:06:25;6.23;;;4.37;;
317;SDS011;146;53.448;10.228;2023-02-12T17:08:59;4.90;;;3.80;;
317;SDS011;146;53.448;10.228;2023-02-12T17:11:27;5.03;;;4.27;;
317;SDS011;146;53.448;10.228;2023-02-12T17:13:54;3.73;;;3.40;;
317;SDS011;146;53.448;10.228;2023-02-12T17:16:22;5.27;;;3.63;;
317;SDS011;146;53.448;10.228;2023-02-12T17:18:49;4.33;;;4.03;;
317;SDS011;146;53.448;10.228;2023-02-12T17:21:18;6.00;;;5.40;;
317;SDS011;146;53.448;10.228;2023-02-12T17:23:48;5.77;;;5.10;;
317;SDS011;146;53.448;10.228;2023-02-12T17:26:17;6.37;;;4.80;;
317;SDS011;146;53.448;10.228;2023-02-12T17:28:46;5.63;;;4.87;;